Terminal Aerodrome Forecast
Issued by NWS

Home | Current Version | Previous Version | Text Only | Print | Product List | Glossary On
Versions: 1 2 3 4 5 6 7 8 9 10 11 12 13 14 15 16 17 18 19
000
FTUS43 KILX 261137
TAFDEC
TAF
KDEC 261137Z 2612/2712 19012KT P6SM BKN100
     FM261400 19012G21KT P6SM BKN100
     FM261900 22015G23KT P6SM BKN100
     FM270000 19008KT P6SM SCT050 BKN250=

USA.gov is the U.S. government's official web portal to all federal, state and local government web resources and services.